Terminal Aerodrome Forecast
Issued by NWS

Home | Current Version | Previous Version | Text Only | Print | Product List | Glossary On
Versions: 1 2 3 4 5 6 7 8 9 10 11 12 13
000
FTUS46 KSEW 270500
TAFHQM
TAF
KHQM 270536Z 2706/2806 08008KT P6SM OVC011
      TEMPO 2706/2710 4SM -RA
     FM271200 08008KT P6SM BKN015 OVC030
     FM271600 13006KT P6SM SCT020 OVC035
     FM271900 15006KT P6SM BKN050 BKN100
     FM272300 26008KT P6SM SCT100=

USA.gov is the U.S. government's official web portal to all federal, state and local government web resources and services.